CEF4 weather

Airdrie Airport
Airdrie, Alberta, Canada

Public forecast

Using degrees Celsius for public forecast. Weather courtesy of forecast.io.

METAR (pilot weather report)

Closest report is Calgary International Airport, 9.6 nm (17.7 km) SSW. Retrieved 2019/05/21 13:16 UTC (43 minutes ago):

CYYC 211316Z 00000KT 30SM SCT034 BKN042 OVC080 05/00 A2987 RMK SC3SC3AC2 SLP144

TAF (pilot weather forecast)

Closest forecast is Calgary International Airport, 9.6 nm (17.7 km) SSW. Retrieved 2019/05/21 12:42 UTC (1 hour ago):

TAF CYYC 211138Z 2112/2212 07005KT P6SM BKN040 OVC080 TEMPO 2112/2118 6SM -SHRA BR SCT006 BKN020 OVC040 PROB30 2115/2118 BKN004 FM211800 10008KT P6SM BKN040 TEMPO 2118/2121 P6SM -SHRA BKN020 FM212100 09008KT P6SM SCT020 OVC040 TEMPO 2121/2206 P6SM -SHRA BECMG 2123/2201 04008KT FM220600 33006KT P6SM BKN040 RMK NXT FCST BY 211500Z